Time;durP1;ratioP1;P1;durP2;ratioP2;P2;SDS_P1;SDS_P2;PMS_P1;PMS_P2;Temp;Humidity;BMP_temperature;BMP_pressure;BME280_temperature;BME280_humidity;BME280_pressure;Samples;Min_cycle;Max_cycle;Signal;HPM_P1;HPM_P2
2023/05/25 00:01:29;;;;;;;1.17;1.17;;;;;;;13.03;68.43;95699.44;4361486;32;20190;-61
2023/05/25 00:03:55;;;;;;;5.00;1.63;;;;;;;13.09;68.58;95706.22;4356981;32;20226;-62
2023/05/25 00:06:21;;;;;;;2.87;1.27;;;;;;;13.26;68.45;95710.19;4370772;32;20189;-62
2023/05/25 00:08:47;;;;;;;0.77;0.77;;;;;;;13.29;68.35;95713.03;4347197;32;20284;-61
2023/05/25 00:11:13;;;;;;;1.03;1.03;;;;;;;13.25;67.88;95711.28;4339241;32;20201;-61
2023/05/25 00:13:39;;;;;;;2.03;1.63;;;;;;;13.33;67.78;95713.22;4338482;32;20223;-62
2023/05/25 00:16:05;;;;;;;1.83;1.73;;;;;;;13.05;68.58;95715.91;4336919;32;20174;-62
2023/05/25 00:18:31;;;;;;;3.63;1.27;;;;;;;13.07;68.69;95708.44;4352027;32;20255;-61
2023/05/25 00:20:57;;;;;;;1.03;1.03;;;;;;;13.29;68.19;95723.69;4349708;32;20236;-62
2023/05/25 00:23:23;;;;;;;1.53;1.43;;;;;;;13.39;67.82;95712.81;4328603;32;20193;-63
2023/05/25 00:25:48;;;;;;;1.47;1.33;;;;;;;13.57;67.32;95719.06;4339434;32;20200;-62
2023/05/25 00:28:13;;;;;;;1.50;1.00;;;;;;;13.50;67.63;95717.91;4338634;32;20224;-62
2023/05/25 00:30:39;;;;;;;1.27;1.27;;;;;;;13.45;67.34;95716.16;4333657;32;20190;-62
2023/05/25 00:33:04;;;;;;;1.33;1.23;;;;;;;13.62;66.83;95707.50;4329248;32;20177;-62
2023/05/25 00:35:29;;;;;;;1.10;1.10;;;;;;;13.43;67.02;95699.66;4334393;32;20252;-62
2023/05/25 00:37:55;;;;;;;1.13;1.03;;;;;;;13.49;67.34;95700.34;4331465;32;20189;-62
2023/05/25 00:40:20;;;;;;;2.03;1.33;;;;;;;13.36;67.68;95699.28;4331262;32;20178;-61
2023/05/25 00:42:46;;;;;;;1.13;1.03;;;;;;;13.43;67.54;95698.88;4348350;32;20243;-64
2023/05/25 00:45:11;;;;;;;1.17;1.17;;;;;;;13.28;68.05;95692.81;4347375;32;20186;-61
2023/05/25 00:47:38;;;;;;;2.37;1.33;;;;;;;13.27;68.42;95693.13;4344641;32;20186;-61
2023/05/25 00:50:07;;;;;;;1.03;1.03;;;;;;;13.18;68.66;95695.69;4329762;32;20301;-62
2023/05/25 00:52:33;;;;;;;3.70;1.87;;;;;;;13.02;69.33;95691.75;4336208;32;20236;-61
2023/05/25 00:55:01;;;;;;;1.20;1.20;;;;;;;12.97;69.76;95687.31;4332689;32;20265;-61
2023/05/25 00:57:28;;;;;;;1.13;1.13;;;;;;;12.88;70.37;95672.37;4335900;32;20263;-62
2023/05/25 00:59:56;;;;;;;0.77;0.77;;;;;;;12.84;70.75;95676.69;4334416;32;20189;-62
2023/05/25 01:02:23;;;;;;;0.97;0.97;;;;;;;12.87;71.00;95682.22;4338767;32;20263;-61
2023/05/25 01:04:52;;;;;;;0.50;0.50;;;;;;;12.92;70.98;95690.09;4331976;32;20315;-62
2023/05/25 01:07:22;;;;;;;1.00;1.00;;;;;;;12.97;70.90;95686.53;4334247;32;20227;-62
2023/05/25 01:09:49;;;;;;;2.10;1.90;;;;;;;12.99;70.69;95689.69;4345781;32;20173;-62
2023/05/25 01:12:16;;;;;;;1.20;1.17;;;;;;;12.92;71.10;95698.06;4346080;32;20207;-62
2023/05/25 01:14:42;;;;;;;3.07;1.53;;;;;;;12.93;71.31;95696.19;4354192;32;20185;-62
2023/05/25 01:17:09;;;;;;;1.77;1.50;;;;;;;13.04;71.21;95694.91;4360711;32;20181;-62
2023/05/25 01:19:39;;;;;;;1.83;1.37;;;;;;;12.96;71.31;95696.41;4361209;32;20200;-62
2023/05/25 01:22:28;;;;;;;1.13;1.13;;;;;;;13.05;71.31;95691.94;4359725;32;20188;-62
2023/05/25 01:25:01;;;;;;;1.47;1.20;;;;;;;13.01;71.24;95693.63;4370036;32;20268;-62
2023/05/25 01:27:38;;;;;;;1.73;1.63;;;;;;;13.07;71.19;95691.66;4362436;32;20196;-61
2023/05/25 01:30:09;;;;;;;1.03;0.93;;;;;;;12.88;72.26;95688.34;4360686;32;20180;-61
2023/05/25 01:32:36;;;;;;;1.17;1.17;;;;;;;12.98;72.25;95688.91;4357800;32;20250;-62
2023/05/25 01:35:03;;;;;;;1.57;1.47;;;;;;;12.88;72.81;95689.13;4360229;32;20232;-61
2023/05/25 01:37:30;;;;;;;1.73;1.63;;;;;;;12.95;72.81;95686.81;4355410;32;20255;-62
2023/05/25 01:39:56;;;;;;;1.63;1.53;;;;;;;12.83;73.22;95678.56;4369001;32;20208;-61
2023/05/25 01:42:21;;;;;;;0.93;0.93;;;;;;;12.82;73.76;95686.84;4371597;32;20176;-62
2023/05/25 01:44:47;;;;;;;3.83;1.73;;;;;;;12.90;73.61;95694.91;4354671;32;20267;-62
2023/05/25 01:47:20;;;;;;;1.10;1.10;;;;;;;12.88;74.12;95696.31;4344152;32;20193;-62
2023/05/25 01:49:58;;;;;;;1.70;1.60;;;;;;;12.87;74.48;95686.75;4368952;32;20181;-65
2023/05/25 01:52:35;;;;;;;1.93;1.50;;;;;;;12.88;75.15;95691.78;4359109;32;20255;-62
2023/05/25 01:55:21;;;;;;;1.60;1.60;;;;;;;12.97;75.07;95695.31;4365559;32;20188;-62
2023/05/25 01:57:51;;;;;;;4.27;2.13;;;;;;;12.93;75.65;95694.31;4360580;32;20240;-62
2023/05/25 02:00:18;;;;;;;2.57;2.37;;;;;;;13.01;75.67;95704.28;4371313;32;20235;-62
2023/05/25 02:02:46;;;;;;;1.63;1.53;;;;;;;13.17;75.45;95706.66;4362269;32;20200;-62
2023/05/25 02:05:12;;;;;;;6.20;2.80;;;;;;;13.09;75.78;95700.13;4371807;32;20230;-62
2023/05/25 02:07:38;;;;;;;2.80;1.77;;;;;;;13.11;76.22;95700.59;4358361;32;20185;-62
2023/05/25 02:10:04;;;;;;;3.73;2.53;;;;;;;13.12;76.75;95701.38;4367860;32;20256;-62
2023/05/25 02:12:29;;;;;;;5.17;1.73;;;;;;;13.05;77.48;95691.94;4366463;32;20194;-62
2023/05/25 02:14:55;;;;;;;2.97;2.77;;;;;;;13.07;78.26;95696.97;4355630;32;20181;-62
2023/05/25 02:17:20;;;;;;;1.83;1.80;;;;;;;12.99;79.10;95687.81;4367953;32;20189;-62
2023/05/25 02:19:47;;;;;;;2.37;2.17;;;;;;;13.07;79.47;95689.00;4373280;32;20185;-62
2023/05/25 02:22:13;;;;;;;2.60;2.33;;;;;;;13.03;80.31;95686.13;4372353;32;20189;-62
2023/05/25 02:24:38;;;;;;;2.13;2.03;;;;;;;13.14;80.18;95688.56;4359805;32;20222;-61
2023/05/25 02:27:05;;;;;;;3.00;2.67;;;;;;;13.17;80.73;95685.31;4364160;32;20221;-62
2023/05/25 02:29:31;;;;;;;2.03;1.93;;;;;;;13.08;81.52;95687.91;4366982;32;20193;-62
2023/05/25 02:31:56;;;;;;;2.27;2.17;;;;;;;13.25;81.20;95688.09;4365582;32;20220;-62
2023/05/25 02:34:21;;;;;;;3.57;2.63;;;;;;;13.26;81.46;95686.22;4354157;32;20241;-62
2023/05/25 02:36:47;;;;;;;8.30;3.80;;;;;;;13.28;81.89;95678.69;4353964;32;20287;-63
2023/05/25 02:39:12;;;;;;;3.10;2.80;;;;;;;13.45;82.00;95678.03;4374802;32;20213;-62
2023/05/25 02:41:38;;;;;;;5.27;3.43;;;;;;;13.29;83.28;95675.75;4368663;32;20177;-63
2023/05/25 02:44:04;;;;;;;3.93;3.73;;;;;;;13.42;83.39;95676.78;4367554;32;20195;-64
2023/05/25 02:46:29;;;;;;;3.97;3.67;;;;;;;13.40;84.15;95677.06;4355006;32;20185;-62
2023/05/25 02:48:55;;;;;;;4.03;3.73;;;;;;;13.42;84.47;95679.44;4354300;32;20235;-62
2023/05/25 02:51:20;;;;;;;2.90;2.80;;;;;;;13.38;85.32;95678.47;4371742;32;20177;-63
2023/05/25 02:53:45;;;;;;;3.73;3.43;;;;;;;13.30;86.32;95673.88;4358682;32;20180;-62
2023/05/25 02:56:11;;;;;;;15.63;4.20;;;;;;;13.30;87.10;95671.97;4354787;32;20217;-62
2023/05/25 02:58:37;;;;;;;3.43;3.30;;;;;;;13.29;87.44;95667.75;4363753;32;20342;-62
2023/05/25 03:01:04;;;;;;;3.07;2.97;;;;;;;13.33;87.54;95668.69;4360160;32;20181;-62
2023/05/25 03:03:29;;;;;;;3.77;3.53;;;;;;;13.33;87.80;95666.03;4364238;32;20268;-62
2023/05/25 03:05:55;;;;;;;3.03;2.93;;;;;;;13.25;88.20;95673.97;4369877;32;20185;-63
2023/05/25 03:08:21;;;;;;;3.23;3.03;;;;;;;13.23;88.70;95670.81;4368806;32;20203;-62
2023/05/25 03:10:46;;;;;;;6.50;4.07;;;;;;;13.24;88.74;95665.19;4366635;32;20299;-63
2023/05/25 03:13:12;;;;;;;4.90;3.77;;;;;;;13.19;89.16;95675.16;4359793;32;20185;-62
2023/05/25 03:15:38;;;;;;;4.53;4.13;;;;;;;13.09;89.79;95679.59;4358490;32;20182;-62
2023/05/25 03:18:04;;;;;;;2.90;2.70;;;;;;;13.12;89.88;95680.06;4354404;32;20185;-62
2023/05/25 03:20:31;;;;;;;4.37;2.73;;;;;;;13.11;89.87;95679.28;4362257;32;20204;-62
2023/05/25 03:22:57;;;;;;;4.10;3.80;;;;;;;13.19;89.54;95686.63;4359643;32;20217;-62
2023/05/25 03:25:22;;;;;;;3.83;3.60;;;;;;;13.18;89.75;95690.34;4374482;32;20293;-62
2023/05/25 03:27:50;;;;;;;3.87;3.37;;;;;;;13.31;89.05;95683.41;4365466;32;20209;-62
2023/05/25 03:30:16;;;;;;;3.20;3.00;;;;;;;13.32;88.78;95684.97;4342309;32;20204;-63
2023/05/25 03:32:41;;;;;;;3.43;2.73;;;;;;;13.23;89.06;95681.47;4364285;32;20211;-62
2023/05/25 03:35:07;;;;;;;2.93;2.83;;;;;;;13.16;89.21;95681.88;4346145;32;20220;-62
2023/05/25 03:37:32;;;;;;;3.53;3.33;;;;;;;13.18;89.22;95678.91;4356555;32;20230;-62
2023/05/25 03:39:57;;;;;;;2.87;2.70;;;;;;;13.17;89.24;95685.31;4355969;32;20182;-62
2023/05/25 03:42:23;;;;;;;3.17;2.97;;;;;;;13.14;89.40;95683.22;4360196;32;20203;-62
2023/05/25 03:44:48;;;;;;;9.13;3.23;;;;;;;13.14;89.41;95685.91;4348033;32;20219;-62
2023/05/25 03:47:13;;;;;;;3.20;3.00;;;;;;;13.05;89.84;95686.63;4360339;32;20188;-62
2023/05/25 03:49:38;;;;;;;3.40;3.20;;;;;;;13.03;89.77;95686.13;4365039;32;20211;-62
2023/05/25 03:52:05;;;;;;;3.80;3.53;;;;;;;13.06;89.50;95687.41;4361882;32;20177;-62
2023/05/25 03:54:30;;;;;;;2.93;2.70;;;;;;;13.02;89.70;95681.09;4359725;32;20231;-62
2023/05/25 03:57:01;;;;;;;2.63;2.43;;;;;;;13.00;89.39;95689.38;4362481;32;20185;-62
2023/05/25 03:59:26;;;;;;;2.93;2.80;;;;;;;13.04;89.47;95695.69;4363175;32;20203;-63
2023/05/25 04:01:51;;;;;;;2.37;2.27;;;;;;;13.05;89.04;95697.28;4344606;32;20185;-62
2023/05/25 04:04:17;;;;;;;2.87;2.77;;;;;;;13.07;88.90;95689.00;4366196;32;20242;-63
2023/05/25 04:06:44;;;;;;;2.50;2.40;;;;;;;13.09;88.94;95690.25;4358684;32;20190;-62
2023/05/25 04:09:10;;;;;;;3.03;2.83;;;;;;;13.17;88.73;95696.00;4357467;32;20319;-63
2023/05/25 04:11:35;;;;;;;5.80;3.87;;;;;;;13.25;88.32;95696.06;4362087;32;21762;-62
2023/05/25 04:14:01;;;;;;;12.63;3.20;;;;;;;13.27;88.13;95698.44;4352652;32;20203;-62
2023/05/25 04:16:26;;;;;;;2.00;1.93;;;;;;;13.08;88.71;95702.00;4364921;32;20199;-62
2023/05/25 04:18:51;;;;;;;2.17;2.07;;;;;;;13.24;88.34;95704.38;4348862;32;20190;-62
2023/05/25 04:21:17;;;;;;;3.60;3.17;;;;;;;13.37;87.55;95706.97;4367274;32;20215;-63
2023/05/25 04:23:42;;;;;;;2.53;2.33;;;;;;;13.28;87.80;95711.47;4364063;32;20217;-62
2023/05/25 04:26:09;;;;;;;2.30;2.20;;;;;;;13.33;87.48;95715.88;4362348;32;20269;-62
2023/05/25 04:28:35;;;;;;;5.40;3.17;;;;;;;13.19;88.17;95713.25;4369909;32;20205;-62
2023/05/25 04:31:02;;;;;;;3.93;3.63;;;;;;;13.30;87.89;95708.50;4374377;32;20243;-62
2023/05/25 04:33:28;;;;;;;3.50;3.30;;;;;;;13.29;87.95;95715.72;4345875;32;20225;-62
2023/05/25 04:35:57;;;;;;;4.87;2.57;;;;;;;13.41;87.66;95702.63;4341274;32;20208;-62
2023/05/25 04:38:23;;;;;;;5.77;3.80;;;;;;;13.37;87.35;95709.66;4354973;32;20197;-63
2023/05/25 04:40:49;;;;;;;4.47;3.00;;;;;;;13.35;87.23;95719.03;4365913;32;20234;-62
2023/05/25 04:43:16;;;;;;;3.80;3.60;;;;;;;13.29;87.47;95714.91;4362993;32;20222;-62
2023/05/25 04:45:45;;;;;;;4.17;3.97;;;;;;;13.35;87.42;95705.69;4354391;32;20185;-62
2023/05/25 04:48:14;;;;;;;2.80;2.70;;;;;;;13.19;88.33;95707.91;4358116;32;20188;-62
2023/05/25 04:50:39;;;;;;;2.63;2.53;;;;;;;13.25;88.36;95696.06;4359735;32;20196;-62
2023/05/25 04:53:05;;;;;;;3.50;3.20;;;;;;;13.32;87.99;95707.09;4354760;32;20191;-62
2023/05/25 04:55:31;;;;;;;6.73;3.70;;;;;;;13.30;88.29;95703.16;4372355;32;20238;-63
2023/05/25 04:57:56;;;;;;;3.37;3.17;;;;;;;13.39;87.69;95706.69;4349133;32;20203;-63
2023/05/25 05:00:21;;;;;;;2.23;2.13;;;;;;;13.45;87.74;95713.47;4359547;32;20181;-62
2023/05/25 05:02:47;;;;;;;2.90;2.77;;;;;;;13.33;87.68;95713.22;4353854;32;20228;-63
2023/05/25 05:05:12;;;;;;;3.23;2.93;;;;;;;13.35;88.17;95716.38;4351091;32;20224;-62
2023/05/25 05:07:38;;;;;;;3.90;3.60;;;;;;;13.42;87.93;95719.41;4365373;32;20181;-63
2023/05/25 05:10:04;;;;;;;3.13;2.93;;;;;;;13.33;88.50;95722.00;4340383;32;20228;-63
2023/05/25 05:12:30;;;;;;;3.07;2.77;;;;;;;13.35;88.73;95725.16;4366103;32;20265;-63
2023/05/25 05:14:55;;;;;;;3.13;2.83;;;;;;;13.47;87.95;95740.63;4366473;32;20260;-63
2023/05/25 05:17:21;;;;;;;2.70;2.60;;;;;;;13.46;87.79;95743.59;4362329;32;20235;-63
2023/05/25 05:19:47;;;;;;;3.50;3.23;;;;;;;13.51;87.67;95741.56;4361251;32;20181;-63
2023/05/25 05:22:14;;;;;;;3.47;3.33;;;;;;;13.51;87.86;95741.56;4367411;32;20192;-63
2023/05/25 05:24:40;;;;;;;3.23;3.03;;;;;;;13.46;87.97;95739.03;4350680;32;20176;-63
2023/05/25 05:27:05;;;;;;;3.30;3.03;;;;;;;13.49;88.16;95730.47;4359524;32;20177;-63
2023/05/25 05:29:32;;;;;;;3.30;3.10;;;;;;;13.50;88.07;95740.03;4349228;32;20191;-62
2023/05/25 05:31:58;;;;;;;3.20;3.00;;;;;;;13.57;87.97;95745.72;4356647;32;20231;-63
2023/05/25 05:34:24;;;;;;;3.57;3.27;;;;;;;13.64;87.64;95746.09;4361188;32;20200;-63
2023/05/25 05:36:49;;;;;;;3.47;3.23;;;;;;;13.71;87.48;95745.69;4358607;32;20185;-63
2023/05/25 05:39:15;;;;;;;7.07;3.50;;;;;;;13.72;87.32;95740.03;4370361;32;20207;-62
2023/05/25 05:41:42;;;;;;;3.43;3.20;;;;;;;13.85;86.77;95740.28;4370299;32;20214;-62
2023/05/25 05:44:08;;;;;;;3.57;3.27;;;;;;;13.91;86.71;95749.75;4365582;32;20211;-61
2023/05/25 05:46:33;;;;;;;3.53;3.33;;;;;;;13.87;86.80;95754.09;4359897;32;20189;-62
2023/05/25 05:48:58;;;;;;;3.17;2.97;;;;;;;13.84;87.08;95768.03;4359957;32;20200;-61
2023/05/25 05:51:24;;;;;;;4.47;3.57;;;;;;;13.92;87.01;95756.66;4366037;32;20196;-62
2023/05/25 05:53:49;;;;;;;3.27;3.07;;;;;;;13.81;87.34;95760.66;4360790;32;20197;-62
2023/05/25 05:56:18;;;;;;;3.53;2.90;;;;;;;13.87;87.32;95759.44;4358244;32;20184;-62
2023/05/25 05:58:43;;;;;;;6.07;4.53;;;;;;;13.77;87.74;95758.56;4363222;32;20212;-62
2023/05/25 06:01:09;;;;;;;5.60;3.50;;;;;;;13.69;88.35;95758.53;4341678;32;20185;-64
2023/05/25 06:03:34;;;;;;;2.40;2.30;;;;;;;13.92;94.43;95746.00;4353735;32;20200;-65
2023/05/25 06:06:00;;;;;;;3.37;3.17;;;;;;;14.93;100.00;95751.41;4355738;32;20248;-65
2023/05/25 06:08:26;;;;;;;5.43;2.63;;;;;;;15.33;100.00;95752.09;4366154;32;20193;-64
2023/05/25 06:10:51;;;;;;;2.47;2.37;;;;;;;15.68;97.28;95752.94;4370625;32;20271;-64
2023/05/25 06:13:17;;;;;;;3.77;3.47;;;;;;;15.96;92.97;95753.41;4367758;32;20217;-65
2023/05/25 06:15:42;;;;;;;2.00;1.90;;;;;;;16.30;87.58;95763.28;4359501;32;20207;-64
2023/05/25 06:18:08;;;;;;;3.67;3.27;;;;;;;16.61;88.41;95751.53;4370838;32;20207;-64
2023/05/25 06:20:34;;;;;;;3.30;3.13;;;;;;;16.84;88.56;95766.28;4358527;32;20223;-64
2023/05/25 06:23:00;;;;;;;2.50;2.40;;;;;;;16.95;84.55;95759.47;4352527;32;20256;-64
2023/05/25 06:25:25;;;;;;;2.47;2.37;;;;;;;17.07;81.45;95762.22;4351165;32;20332;-64
2023/05/25 06:27:50;;;;;;;2.27;2.17;;;;;;;17.11;80.32;95765.84;4359632;32;20180;-64
2023/05/25 06:30:16;;;;;;;3.30;3.10;;;;;;;17.19;79.35;95769.59;4359443;32;20173;-65
2023/05/25 06:32:42;;;;;;;3.30;3.10;;;;;;;17.18;78.43;95768.81;4363561;32;20189;-64
2023/05/25 06:35:08;;;;;;;1.93;1.90;;;;;;;17.22;78.49;95770.84;4358348;32;20196;-64
2023/05/25 06:37:36;;;;;;;3.07;2.80;;;;;;;17.06;78.14;95767.91;4376484;32;20188;-64
2023/05/25 06:40:09;;;;;;;2.03;2.03;;;;;;;17.00;78.33;95779.94;4354759;32;20243;-64
2023/05/25 06:42:34;;;;;;;2.03;1.93;;;;;;;16.96;77.24;95779.81;4378517;32;20231;-64
2023/05/25 06:45:00;;;;;;;2.87;2.70;;;;;;;17.11;77.44;95779.25;4364403;32;20205;-64
2023/05/25 06:47:25;;;;;;;1.77;1.77;;;;;;;17.16;76.84;95778.28;4365653;32;20180;-64
2023/05/25 06:49:50;;;;;;;2.53;2.43;;;;;;;17.04;76.96;95781.62;4365284;32;20236;-64
2023/05/25 06:52:16;;;;;;;2.50;2.40;;;;;;;17.04;77.10;95787.00;4364045;32;20192;-64
2023/05/25 06:54:41;;;;;;;2.20;2.10;;;;;;;16.91;77.03;95788.00;4364852;32;20207;-64
2023/05/25 06:57:06;;;;;;;2.87;2.67;;;;;;;17.06;77.54;95789.34;4355553;32;20305;-64
2023/05/25 06:59:32;;;;;;;2.10;2.00;;;;;;;17.10;76.30;95792.97;4364182;32;20313;-65
2023/05/25 07:01:59;;;;;;;2.97;2.87;;;;;;;16.91;79.33;95787.22;4361821;32;20231;-63
2023/05/25 07:04:25;;;;;;;4.43;4.10;;;;;;;15.40;80.21;95797.88;4362683;32;20264;-65
2023/05/25 07:06:51;;;;;;;3.87;3.50;;;;;;;14.71;83.33;95795.00;4363684;32;20180;-64
2023/05/25 07:09:16;;;;;;;3.17;2.97;;;;;;;14.51;84.75;95797.41;4361133;32;20193;-64
2023/05/25 07:11:42;;;;;;;4.03;3.73;;;;;;;14.75;86.49;95787.94;4356750;32;20232;-63
2023/05/25 07:14:07;;;;;;;5.57;3.87;;;;;;;14.79;84.51;95801.44;4356026;32;20178;-63
2023/05/25 07:16:33;;;;;;;4.47;4.10;;;;;;;15.01;85.99;95792.56;4364000;32;20176;-63
2023/05/25 07:18:58;;;;;;;3.20;3.00;;;;;;;15.16;83.83;95794.06;4355099;32;20236;-62
2023/05/25 07:21:23;;;;;;;3.33;3.13;;;;;;;15.36;81.29;95799.63;4366244;32;20264;-64
2023/05/25 07:23:49;;;;;;;3.97;3.73;;;;;;;14.69;83.59;95815.09;4361439;32;20253;-65
2023/05/25 07:26:15;;;;;;;3.40;3.27;;;;;;;14.93;83.45;95804.81;4374862;32;20249;-65
2023/05/25 07:28:40;;;;;;;3.20;3.00;;;;;;;15.65;81.21;95796.38;4368198;32;20173;-65
2023/05/25 07:31:05;;;;;;;3.03;2.83;;;;;;;15.78;81.28;95803.47;4361775;32;20276;-65
2023/05/25 07:33:31;;;;;;;3.07;2.83;;;;;;;16.03;80.35;95798.41;4361442;32;20184;-65
2023/05/25 07:35:56;;;;;;;4.30;3.93;;;;;;;15.05;80.94;95810.34;4355957;32;20287;-65
2023/05/25 07:38:21;;;;;;;4.40;3.93;;;;;;;14.96;81.73;95796.19;4368066;32;20181;-63
2023/05/25 07:40:48;;;;;;;4.20;3.57;;;;;;;15.17;80.32;95809.78;4349836;32;20201;-64
2023/05/25 07:43:13;;;;;;;2.83;2.63;;;;;;;15.61;81.34;95814.13;4353426;32;20186;-64
2023/05/25 07:45:39;;;;;;;3.00;2.90;;;;;;;15.91;79.89;95803.63;4362590;32;20196;-64
2023/05/25 07:48:06;;;;;;;3.83;3.60;;;;;;;15.58;79.56;95811.31;4359580;32;20303;-62
2023/05/25 07:50:31;;;;;;;4.83;3.57;;;;;;;15.69;79.24;95817.94;4354416;32;20192;-61
2023/05/25 07:52:58;;;;;;;3.43;2.47;;;;;;;15.90;78.51;95815.44;4364014;32;20260;-61
2023/05/25 07:55:25;;;;;;;14.23;5.20;;;;;;;15.97;78.30;95813.06;4373027;32;20177;-61
2023/05/25 07:57:50;;;;;;;3.13;2.93;;;;;;;15.60;79.67;95825.16;4353894;32;20211;-60
2023/05/25 08:00:17;;;;;;;2.90;2.80;;;;;;;15.54;78.79;95826.38;4374175;32;20185;-60
2023/05/25 08:02:42;;;;;;;3.57;3.37;;;;;;;15.35;79.62;95832.00;4360820;32;20181;-60
2023/05/25 08:05:08;;;;;;;2.93;2.73;;;;;;;15.30;80.06;95824.13;4350632;32;20211;-61
2023/05/25 08:07:34;;;;;;;2.97;2.83;;;;;;;15.02;81.65;95824.34;4349418;32;20189;-60
2023/05/25 08:10:01;;;;;;;3.50;3.30;;;;;;;15.05;81.64;95829.06;4363142;32;20263;-61
2023/05/25 08:12:26;;;;;;;2.93;2.83;;;;;;;15.10;81.32;95831.59;4362117;32;20227;-61
2023/05/25 08:14:53;;;;;;;2.50;2.40;;;;;;;15.13;81.57;95831.00;4343650;32;20201;-62
2023/05/25 08:17:19;;;;;;;4.03;2.97;;;;;;;15.11;82.42;95832.41;4372146;32;20239;-61
2023/05/25 08:19:44;;;;;;;2.83;2.70;;;;;;;15.26;81.90;95841.88;4367642;32;20197;-61
2023/05/25 08:22:09;;;;;;;2.70;2.53;;;;;;;15.35;80.88;95845.38;4360311;32;20201;-60
2023/05/25 08:24:35;;;;;;;2.90;2.80;;;;;;;15.42;80.82;95849.16;4352892;32;20188;-60
2023/05/25 08:27:01;;;;;;;3.50;3.23;;;;;;;15.38;81.44;95842.09;4353569;32;20200;-61
2023/05/25 08:29:27;;;;;;;3.23;3.13;;;;;;;15.26;81.03;95853.34;4366839;32;20260;-61
2023/05/25 08:31:52;;;;;;;3.03;2.93;;;;;;;15.32;81.27;95841.44;4356676;32;20181;-61
2023/05/25 08:34:18;;;;;;;3.03;2.83;;;;;;;15.31;80.77;95844.41;4368745;32;20315;-61
2023/05/25 08:36:43;;;;;;;2.73;2.57;;;;;;;15.10;82.02;95849.53;4353419;32;20185;-61
2023/05/25 08:39:09;;;;;;;3.20;3.00;;;;;;;15.20;81.22;95846.56;4354735;32;20246;-61
2023/05/25 08:41:41;;;;;;;2.87;2.70;;;;;;;15.12;82.06;95845.44;4356915;32;20189;-62
2023/05/25 08:44:07;;;;;;;4.07;3.87;;;;;;;15.17;81.06;95843.75;4362431;32;20284;-62
2023/05/25 08:46:33;;;;;;;3.37;3.13;;;;;;;15.16;81.47;95848.28;4355142;32;20177;-61
2023/05/25 08:49:04;;;;;;;2.50;2.40;;;;;;;15.17;81.58;95857.09;4353059;32;20223;-60
2023/05/25 08:51:36;;;;;;;3.57;3.37;;;;;;;15.42;82.74;95856.38;4355316;32;20201;-61
2023/05/25 08:54:07;;;;;;;2.80;2.60;;;;;;;15.35;81.58;95861.41;4340101;32;20181;-61
2023/05/25 08:56:40;;;;;;;3.87;3.23;;;;;;;15.33;81.35;95860.94;4345899;32;20192;-60
2023/05/25 08:59:23;;;;;;;2.30;2.20;;;;;;;15.47;82.16;95864.28;4359453;32;20173;-61
2023/05/25 09:01:57;;;;;;;2.10;2.00;;;;;;;15.60;81.69;95862.59;4372143;32;20216;-61
2023/05/25 09:04:24;;;;;;;5.23;3.53;;;;;;;15.54;80.74;95863.81;4365890;32;20184;-61
2023/05/25 09:06:50;;;;;;;3.07;2.87;;;;;;;15.44;80.92;95862.22;4359462;32;20181;-61
2023/05/25 09:09:15;;;;;;;2.97;2.87;;;;;;;15.20;82.14;95877.84;4349376;32;20203;-61
2023/05/25 09:11:42;;;;;;;2.00;1.90;;;;;;;15.29;80.98;95873.34;4359702;32;20224;-60
2023/05/25 09:14:07;;;;;;;2.53;2.43;;;;;;;15.23;81.22;95877.22;4341699;32;20227;-62
2023/05/25 09:16:35;;;;;;;1.83;1.80;;;;;;;15.46;81.05;95870.72;4345796;32;20189;-62
2023/05/25 09:19:01;;;;;;;3.00;2.80;;;;;;;15.38;80.59;95876.84;4339382;32;20181;-62
2023/05/25 09:21:26;;;;;;;2.60;2.40;;;;;;;15.44;80.71;95880.94;4356325;32;20195;-59
2023/05/25 09:23:52;;;;;;;3.93;3.63;;;;;;;15.47;80.08;95885.66;4349996;32;20185;-61
2023/05/25 09:26:18;;;;;;;3.03;2.87;;;;;;;15.44;80.33;95880.94;4352409;32;20212;-60
2023/05/25 09:28:48;;;;;;;5.23;3.90;;;;;;;15.34;81.25;95889.25;4349401;32;20181;-61
2023/05/25 09:31:14;;;;;;;5.40;3.90;;;;;;;15.35;81.02;95898.84;4351170;32;20211;-60
2023/05/25 09:33:41;;;;;;;2.83;2.63;;;;;;;15.27;81.45;95897.69;4352197;32;20199;-61
2023/05/25 09:36:06;;;;;;;4.60;4.30;;;;;;;15.34;81.32;95886.56;4347509;32;22945;-61
2023/05/25 09:38:32;;;;;;;3.50;3.20;;;;;;;15.36;81.32;95893.19;4348417;32;20200;-60
2023/05/25 09:40:58;;;;;;;2.87;2.77;;;;;;;15.32;81.67;95904.81;4341227;32;20182;-60
2023/05/25 09:43:23;;;;;;;3.63;3.33;;;;;;;15.27;81.95;95896.91;4342713;32;20181;-60
2023/05/25 09:45:51;;;;;;;3.27;2.93;;;;;;;15.10;82.47;95908.31;4349600;32;20243;-60
2023/05/25 09:48:17;;;;;;;2.50;2.40;;;;;;;15.23;82.32;95907.44;4351724;32;20246;-60
2023/05/25 09:50:43;;;;;;;3.57;3.27;;;;;;;15.30;82.02;95907.78;4340273;32;20202;-59
2023/05/25 09:53:08;;;;;;;3.23;3.03;;;;;;;15.33;82.29;95911.72;4352292;32;20188;-60
2023/05/25 09:55:36;;;;;;;3.17;3.00;;;;;;;15.36;81.76;95908.44;4350050;32;20222;-61
2023/05/25 09:58:01;;;;;;;4.93;3.40;;;;;;;15.43;81.53;95906.09;4361054;32;20219;-60
2023/05/25 10:00:26;;;;;;;2.90;2.80;;;;;;;15.54;81.43;95899.38;4359694;32;20194;-61
2023/05/25 10:02:52;;;;;;;3.03;2.83;;;;;;;15.65;81.05;95898.00;4356411;32;20185;-61
2023/05/25 10:05:18;;;;;;;2.00;1.90;;;;;;;15.64;81.05;95904.47;4352818;32;20197;-60
2023/05/25 10:07:45;;;;;;;2.10;2.00;;;;;;;15.65;80.85;95903.34;4359594;32;20204;-61
2023/05/25 10:10:14;;;;;;;4.57;4.17;;;;;;;15.78;80.43;95905.16;4348326;32;20181;-60
2023/05/25 10:12:41;;;;;;;3.20;3.00;;;;;;;15.68;81.23;95907.31;4348851;32;20193;-61
2023/05/25 10:15:09;;;;;;;3.17;2.93;;;;;;;15.65;80.94;95906.03;4363589;32;20263;-61
2023/05/25 10:17:42;;;;;;;2.73;2.53;;;;;;;15.79;80.32;95911.28;4337860;32;20189;-61
2023/05/25 10:20:08;;;;;;;2.37;2.17;;;;;;;15.74;79.85;95909.53;4356754;32;20277;-60
2023/05/25 10:22:39;;;;;;;2.30;2.10;;;;;;;15.73;80.26;95904.50;4348354;32;20203;-61
2023/05/25 10:25:24;;;;;;;1.80;1.70;;;;;;;15.88;79.61;95919.31;4353479;32;20200;-60
2023/05/25 10:27:58;;;;;;;1.97;1.87;;;;;;;15.96;79.48;95905.16;4339990;32;20189;-60
2023/05/25 10:30:25;;;;;;;2.57;2.37;;;;;;;15.96;79.81;95910.53;4339177;32;20284;-60
2023/05/25 10:32:51;;;;;;;3.87;3.67;;;;;;;16.01;79.22;95905.00;4367195;32;20192;-60
2023/05/25 10:35:18;;;;;;;3.03;2.67;;;;;;;15.97;79.20;95904.06;4353576;32;20221;-60
2023/05/25 10:37:44;;;;;;;2.00;1.90;;;;;;;15.98;79.53;95911.00;4337561;32;20233;-60
2023/05/25 10:40:12;;;;;;;3.73;3.47;;;;;;;15.99;79.44;95907.22;4345789;32;20200;-60
2023/05/25 10:42:39;;;;;;;3.20;3.00;;;;;;;16.05;78.84;95908.63;4354127;32;20227;-61
2023/05/25 10:45:07;;;;;;;2.83;2.63;;;;;;;16.12;79.12;95899.03;4356764;32;20189;-60
2023/05/25 10:47:36;;;;;;;4.20;3.90;;;;;;;16.13;79.29;95902.50;4350157;32;20193;-60
2023/05/25 10:50:03;;;;;;;2.23;2.13;;;;;;;16.27;79.12;95900.47;4348454;32;20207;-60
2023/05/25 10:52:30;;;;;;;4.03;3.77;;;;;;;16.33;78.52;95904.56;4343060;32;20244;-60
2023/05/25 10:54:57;;;;;;;3.13;3.03;;;;;;;16.25;78.52;95901.88;4339765;32;20235;-60
2023/05/25 10:57:24;;;;;;;3.27;3.17;;;;;;;16.25;78.24;95899.97;4351351;32;20185;-61
2023/05/25 11:00:09;;;;;;;2.37;2.27;;;;;;;16.11;78.98;95899.34;4347522;32;20221;-60
2023/05/25 11:02:49;;;;;;;2.10;2.00;;;;;;;16.15;79.59;95905.66;4338120;32;20185;-61
2023/05/25 11:05:26;;;;;;;3.43;3.23;;;;;;;16.19;79.30;95906.63;4357691;32;20185;-61
2023/05/25 11:08:02;;;;;;;2.83;2.57;;;;;;;16.24;79.07;95895.72;4335789;32;20193;-61
2023/05/25 11:10:43;;;;;;;2.10;2.00;;;;;;;16.28;79.07;95898.56;4355951;32;20188;-60
2023/05/25 11:13:30;;;;;;;1.80;1.77;;;;;;;16.31;78.56;95898.72;4354046;32;20181;-61
2023/05/25 11:16:18;;;;;;;2.83;2.73;;;;;;;16.44;79.13;95891.63;4343137;32;20306;-60
2023/05/25 11:18:52;;;;;;;3.43;3.17;;;;;;;16.53;78.61;95897.00;4356471;32;20211;-60
2023/05/25 11:21:26;;;;;;;2.87;2.67;;;;;;;16.60;78.61;95898.09;4368940;32;20203;-64
2023/05/25 11:24:03;;;;;;;5.50;3.07;;;;;;;16.70;78.25;95899.69;4345655;32;20254;-61
2023/05/25 11:26:30;;;;;;;3.30;3.10;;;;;;;16.69;77.50;95892.75;4367856;32;20196;-60
2023/05/25 11:28:57;;;;;;;3.07;2.97;;;;;;;16.78;78.58;95893.53;4360101;32;20185;-61
2023/05/25 11:31:31;;;;;;;3.43;3.13;;;;;;;16.91;77.13;95905.94;4361180;32;20184;-60
2023/05/25 11:33:58;;;;;;;3.17;2.97;;;;;;;16.82;77.70;95897.94;4362618;32;20211;-61